sensor_id;sensor_type;location;lat;lon;timestamp;P1;durP1;ratioP1;P2;durP2;ratioP2
4742;SDS011;24293;48.154;7.748;2023-12-14T00:00:17;4.40;;;2.27;;
4742;SDS011;24293;48.154;7.748;2023-12-14T00:02:44;8.00;;;2.07;;
4742;SDS011;24293;48.154;7.748;2023-12-14T00:05:12;3.83;;;1.90;;
4742;SDS011;24293;48.154;7.748;2023-12-14T00:07:38;9.10;;;2.50;;
4742;SDS011;24293;48.154;7.748;2023-12-14T00:10:05;16.10;;;2.30;;
4742;SDS011;24293;48.154;7.748;2023-12-14T00:12:32;4.90;;;2.20;;
4742;SDS011;24293;48.154;7.748;2023-12-14T00:14:58;3.70;;;1.83;;
4742;SDS011;24293;48.154;7.748;2023-12-14T00:17:25;4.77;;;1.97;;
4742;SDS011;24293;48.154;7.748;2023-12-14T00:19:51;8.27;;;2.30;;
4742;SDS011;24293;48.154;7.748;2023-12-14T00:22:19;4.80;;;2.20;;
4742;SDS011;24293;48.154;7.748;2023-12-14T00:24:46;4.13;;;2.00;;
4742;SDS011;24293;48.154;7.748;2023-12-14T00:27:12;3.13;;;1.70;;
4742;SDS011;24293;48.154;7.748;2023-12-14T00:29:39;8.00;;;2.40;;
4742;SDS011;24293;48.154;7.748;2023-12-14T00:32:06;4.40;;;2.10;;
4742;SDS011;24293;48.154;7.748;2023-12-14T00:34:32;13.63;;;2.10;;
4742;SDS011;24293;48.154;7.748;2023-12-14T00:36:59;6.73;;;2.53;;
4742;SDS011;24293;48.154;7.748;2023-12-14T00:39:27;3.30;;;1.90;;
4742;SDS011;24293;48.154;7.748;2023-12-14T00:41:53;4.53;;;2.30;;
4742;SDS011;24293;48.154;7.748;2023-12-14T00:44:20;3.90;;;2.07;;
4742;SDS011;24293;48.154;7.748;2023-12-14T00:46:46;4.83;;;2.23;;
4742;SDS011;24293;48.154;7.748;2023-12-14T00:49:13;5.77;;;2.53;;
4742;SDS011;24293;48.154;7.748;2023-12-14T00:51:39;5.00;;;2.40;;
4742;SDS011;24293;48.154;7.748;2023-12-14T00:54:06;3.73;;;1.80;;
4742;SDS011;24293;48.154;7.748;2023-12-14T00:56:33;7.07;;;2.70;;
4742;SDS011;24293;48.154;7.748;2023-12-14T00:59:00;9.77;;;2.90;;
4742;SDS011;24293;48.154;7.748;2023-12-14T01:01:26;7.43;;;3.10;;
4742;SDS011;24293;48.154;7.748;2023-12-14T01:03:53;4.53;;;2.17;;
4742;SDS011;24293;48.154;7.748;2023-12-14T01:06:19;5.37;;;2.37;;
4742;SDS011;24293;48.154;7.748;2023-12-14T01:08:46;5.00;;;2.50;;
4742;SDS011;24293;48.154;7.748;2023-12-14T01:11:13;4.87;;;2.80;;
4742;SDS011;24293;48.154;7.748;2023-12-14T01:13:41;6.90;;;2.83;;
4742;SDS011;24293;48.154;7.748;2023-12-14T01:16:07;5.00;;;2.63;;
4742;SDS011;24293;48.154;7.748;2023-12-14T01:18:34;4.37;;;2.30;;
4742;SDS011;24293;48.154;7.748;2023-12-14T01:21:01;5.13;;;2.83;;
4742;SDS011;24293;48.154;7.748;2023-12-14T01:23:27;6.37;;;3.40;;
4742;SDS011;24293;48.154;7.748;2023-12-14T01:25:54;6.80;;;3.13;;
4742;SDS011;24293;48.154;7.748;2023-12-14T01:28:20;5.53;;;3.03;;
4742;SDS011;24293;48.154;7.748;2023-12-14T01:30:48;6.97;;;2.80;;
4742;SDS011;24293;48.154;7.748;2023-12-14T01:33:15;6.83;;;3.80;;
4742;SDS011;24293;48.154;7.748;2023-12-14T01:35:41;4.53;;;2.90;;
4742;SDS011;24293;48.154;7.748;2023-12-14T01:38:08;5.13;;;2.73;;
4742;SDS011;24293;48.154;7.748;2023-12-14T01:40:34;4.40;;;2.50;;
4742;SDS011;24293;48.154;7.748;2023-12-14T01:43:07;7.80;;;2.60;;
4742;SDS011;24293;48.154;7.748;2023-12-14T01:45:35;6.30;;;3.20;;
4742;SDS011;24293;48.154;7.748;2023-12-14T01:48:03;5.43;;;2.70;;
4742;SDS011;24293;48.154;7.748;2023-12-14T01:50:29;6.30;;;2.73;;
4742;SDS011;24293;48.154;7.748;2023-12-14T01:52:56;5.70;;;2.80;;
4742;SDS011;24293;48.154;7.748;2023-12-14T01:55:22;6.97;;;3.20;;
4742;SDS011;24293;48.154;7.748;2023-12-14T01:57:51;7.73;;;2.97;;
4742;SDS011;24293;48.154;7.748;2023-12-14T02:00:19;8.77;;;3.10;;
4742;SDS011;24293;48.154;7.748;2023-12-14T02:02:47;5.10;;;3.07;;
4742;SDS011;24293;48.154;7.748;2023-12-14T02:05:15;12.23;;;3.23;;
4742;SDS011;24293;48.154;7.748;2023-12-14T02:07:42;6.03;;;2.93;;
4742;SDS011;24293;48.154;7.748;2023-12-14T02:10:08;6.27;;;3.27;;
4742;SDS011;24293;48.154;7.748;2023-12-14T02:12:35;4.23;;;2.40;;
4742;SDS011;24293;48.154;7.748;2023-12-14T02:15:01;6.13;;;3.40;;
4742;SDS011;24293;48.154;7.748;2023-12-14T02:17:28;8.30;;;2.70;;
4742;SDS011;24293;48.154;7.748;2023-12-14T02:19:54;6.60;;;2.90;;
4742;SDS011;24293;48.154;7.748;2023-12-14T02:22:23;7.80;;;2.80;;
4742;SDS011;24293;48.154;7.748;2023-12-14T02:24:51;5.27;;;2.80;;
4742;SDS011;24293;48.154;7.748;2023-12-14T02:27:17;5.07;;;3.03;;
4742;SDS011;24293;48.154;7.748;2023-12-14T02:29:43;5.40;;;2.90;;
4742;SDS011;24293;48.154;7.748;2023-12-14T02:32:10;5.27;;;3.10;;
4742;SDS011;24293;48.154;7.748;2023-12-14T02:34:36;7.03;;;2.90;;
4742;SDS011;24293;48.154;7.748;2023-12-14T02:37:03;4.90;;;2.80;;
4742;SDS011;24293;48.154;7.748;2023-12-14T02:39:29;5.53;;;3.17;;
4742;SDS011;24293;48.154;7.748;2023-12-14T02:41:57;6.83;;;3.40;;
4742;SDS011;24293;48.154;7.748;2023-12-14T02:44:24;6.50;;;3.73;;
4742;SDS011;24293;48.154;7.748;2023-12-14T02:46:50;6.30;;;3.63;;
4742;SDS011;24293;48.154;7.748;2023-12-14T02:49:17;7.50;;;3.70;;
4742;SDS011;24293;48.154;7.748;2023-12-14T02:51:43;6.43;;;3.20;;
4742;SDS011;24293;48.154;7.748;2023-12-14T02:54:10;5.50;;;2.63;;
4742;SDS011;24293;48.154;7.748;2023-12-14T02:56:36;4.90;;;2.73;;
4742;SDS011;24293;48.154;7.748;2023-12-14T02:59:04;5.97;;;2.80;;
4742;SDS011;24293;48.154;7.748;2023-12-14T03:01:31;4.10;;;2.50;;
4742;SDS011;24293;48.154;7.748;2023-12-14T03:03:57;7.97;;;3.20;;
4742;SDS011;24293;48.154;7.748;2023-12-14T03:06:24;9.30;;;2.83;;
4742;SDS011;24293;48.154;7.748;2023-12-14T03:08:50;5.73;;;3.00;;
4742;SDS011;24293;48.154;7.748;2023-12-14T03:11:22;6.33;;;2.77;;
4742;SDS011;24293;48.154;7.748;2023-12-14T03:13:49;4.60;;;2.60;;
4742;SDS011;24293;48.154;7.748;2023-12-14T03:16:17;5.43;;;2.50;;
4742;SDS011;24293;48.154;7.748;2023-12-14T03:18:44;6.47;;;2.90;;
4742;SDS011;24293;48.154;7.748;2023-12-14T03:21:10;5.20;;;2.97;;
4742;SDS011;24293;48.154;7.748;2023-12-14T03:23:37;7.00;;;3.10;;
4742;SDS011;24293;48.154;7.748;2023-12-14T03:26:03;6.10;;;2.90;;
4742;SDS011;24293;48.154;7.748;2023-12-14T03:28:29;7.77;;;3.30;;
4742;SDS011;24293;48.154;7.748;2023-12-14T03:30:55;7.07;;;3.10;;
4742;SDS011;24293;48.154;7.748;2023-12-14T03:33:23;7.27;;;3.13;;
4742;SDS011;24293;48.154;7.748;2023-12-14T03:35:49;5.70;;;3.37;;
4742;SDS011;24293;48.154;7.748;2023-12-14T03:38:16;6.37;;;2.70;;
4742;SDS011;24293;48.154;7.748;2023-12-14T03:40:42;7.00;;;3.30;;
4742;SDS011;24293;48.154;7.748;2023-12-14T03:43:09;6.90;;;3.17;;
4742;SDS011;24293;48.154;7.748;2023-12-14T03:45:35;5.10;;;2.80;;
4742;SDS011;24293;48.154;7.748;2023-12-14T03:48:02;7.40;;;3.00;;
4742;SDS011;24293;48.154;7.748;2023-12-14T03:50:30;6.50;;;3.00;;
4742;SDS011;24293;48.154;7.748;2023-12-14T03:52:57;7.20;;;2.80;;
4742;SDS011;24293;48.154;7.748;2023-12-14T03:55:24;8.70;;;2.67;;
4742;SDS011;24293;48.154;7.748;2023-12-14T03:57:50;7.50;;;2.70;;
4742;SDS011;24293;48.154;7.748;2023-12-14T04:00:25;7.30;;;3.10;;
4742;SDS011;24293;48.154;7.748;2023-12-14T04:02:51;6.37;;;2.80;;
4742;SDS011;24293;48.154;7.748;2023-12-14T04:05:18;9.93;;;3.50;;
4742;SDS011;24293;48.154;7.748;2023-12-14T04:07:44;6.50;;;2.70;;
4742;SDS011;24293;48.154;7.748;2023-12-14T04:10:11;6.43;;;2.73;;
4742;SDS011;24293;48.154;7.748;2023-12-14T04:12:38;5.53;;;2.80;;
4742;SDS011;24293;48.154;7.748;2023-12-14T04:15:05;4.90;;;2.70;;
4742;SDS011;24293;48.154;7.748;2023-12-14T04:17:33;6.27;;;2.60;;
4742;SDS011;24293;48.154;7.748;2023-12-14T04:20:00;8.30;;;2.80;;
4742;SDS011;24293;48.154;7.748;2023-12-14T04:22:27;7.67;;;2.80;;
4742;SDS011;24293;48.154;7.748;2023-12-14T04:24:54;6.23;;;2.63;;
4742;SDS011;24293;48.154;7.748;2023-12-14T04:27:20;4.53;;;2.50;;
4742;SDS011;24293;48.154;7.748;2023-12-14T04:29:49;5.90;;;2.60;;
4742;SDS011;24293;48.154;7.748;2023-12-14T04:32:15;9.33;;;2.80;;
4742;SDS011;24293;48.154;7.748;2023-12-14T04:34:43;6.90;;;2.50;;
4742;SDS011;24293;48.154;7.748;2023-12-14T04:37:10;7.03;;;3.17;;
4742;SDS011;24293;48.154;7.748;2023-12-14T04:39:36;11.67;;;2.63;;
4742;SDS011;24293;48.154;7.748;2023-12-14T04:42:03;5.53;;;2.93;;
4742;SDS011;24293;48.154;7.748;2023-12-14T04:44:29;6.73;;;3.20;;
4742;SDS011;24293;48.154;7.748;2023-12-14T04:46:56;6.50;;;2.50;;
4742;SDS011;24293;48.154;7.748;2023-12-14T04:49:22;6.17;;;2.70;;
4742;SDS011;24293;48.154;7.748;2023-12-14T04:51:50;5.97;;;2.80;;
4742;SDS011;24293;48.154;7.748;2023-12-14T04:54:16;5.67;;;2.53;;
4742;SDS011;24293;48.154;7.748;2023-12-14T04:56:45;4.77;;;2.80;;
4742;SDS011;24293;48.154;7.748;2023-12-14T04:59:11;5.27;;;2.33;;
4742;SDS011;24293;48.154;7.748;2023-12-14T05:01:38;7.17;;;2.80;;
4742;SDS011;24293;48.154;7.748;2023-12-14T05:04:04;9.57;;;3.67;;
4742;SDS011;24293;48.154;7.748;2023-12-14T05:06:30;6.77;;;3.03;;
4742;SDS011;24293;48.154;7.748;2023-12-14T05:09:00;6.60;;;3.17;;
4742;SDS011;24293;48.154;7.748;2023-12-14T05:11:29;4.60;;;2.80;;
4742;SDS011;24293;48.154;7.748;2023-12-14T05:13:55;7.20;;;3.40;;
4742;SDS011;24293;48.154;7.748;2023-12-14T05:16:22;6.47;;;3.33;;
4742;SDS011;24293;48.154;7.748;2023-12-14T05:18:51;6.10;;;3.17;;
4742;SDS011;24293;48.154;7.748;2023-12-14T05:21:18;5.87;;;3.20;;
4742;SDS011;24293;48.154;7.748;2023-12-14T05:23:45;5.20;;;3.03;;
4742;SDS011;24293;48.154;7.748;2023-12-14T05:26:13;10.10;;;4.57;;
4742;SDS011;24293;48.154;7.748;2023-12-14T05:28:39;12.97;;;4.93;;
4742;SDS011;24293;48.154;7.748;2023-12-14T05:31:06;6.77;;;3.30;;
4742;SDS011;24293;48.154;7.748;2023-12-14T05:33:36;10.23;;;4.00;;
4742;SDS011;24293;48.154;7.748;2023-12-14T05:36:02;14.83;;;6.40;;
4742;SDS011;24293;48.154;7.748;2023-12-14T05:38:30;9.73;;;5.80;;
4742;SDS011;24293;48.154;7.748;2023-12-14T05:40:56;11.97;;;5.43;;
4742;SDS011;24293;48.154;7.748;2023-12-14T05:43:24;8.00;;;3.73;;
4742;SDS011;24293;48.154;7.748;2023-12-14T05:45:51;17.40;;;3.70;;
4742;SDS011;24293;48.154;7.748;2023-12-14T05:48:18;7.53;;;3.63;;
4742;SDS011;24293;48.154;7.748;2023-12-14T05:50:44;8.87;;;3.57;;
4742;SDS011;24293;48.154;7.748;2023-12-14T05:53:11;8.90;;;3.10;;
4742;SDS011;24293;48.154;7.748;2023-12-14T05:55:37;5.07;;;2.63;;
4742;SDS011;24293;48.154;7.748;2023-12-14T05:58:05;5.77;;;3.50;;
4742;SDS011;24293;48.154;7.748;2023-12-14T06:00:33;13.33;;;4.00;;
4742;SDS011;24293;48.154;7.748;2023-12-14T06:03:00;8.37;;;3.60;;
4742;SDS011;24293;48.154;7.748;2023-12-14T06:05:27;8.50;;;4.67;;
4742;SDS011;24293;48.154;7.748;2023-12-14T06:07:53;8.00;;;4.33;;
4742;SDS011;24293;48.154;7.748;2023-12-14T06:10:20;7.80;;;4.47;;
4742;SDS011;24293;48.154;7.748;2023-12-14T06:12:47;8.20;;;3.87;;
4742;SDS011;24293;48.154;7.748;2023-12-14T06:15:14;8.27;;;4.27;;
4742;SDS011;24293;48.154;7.748;2023-12-14T06:17:41;10.30;;;3.60;;
4742;SDS011;24293;48.154;7.748;2023-12-14T06:20:08;9.10;;;4.47;;
4742;SDS011;24293;48.154;7.748;2023-12-14T06:22:35;9.60;;;4.93;;
4742;SDS011;24293;48.154;7.748;2023-12-14T06:25:02;8.47;;;3.90;;
4742;SDS011;24293;48.154;7.748;2023-12-14T06:27:29;9.80;;;4.37;;
4742;SDS011;24293;48.154;7.748;2023-12-14T06:29:55;11.30;;;5.67;;
4742;SDS011;24293;48.154;7.748;2023-12-14T06:32:22;7.70;;;4.60;;
4742;SDS011;24293;48.154;7.748;2023-12-14T06:34:50;9.33;;;4.87;;
4742;SDS011;24293;48.154;7.748;2023-12-14T06:37:16;8.13;;;5.07;;
4742;SDS011;24293;48.154;7.748;2023-12-14T06:39:43;10.53;;;5.20;;
4742;SDS011;24293;48.154;7.748;2023-12-14T06:42:09;7.90;;;5.10;;
4742;SDS011;24293;48.154;7.748;2023-12-14T06:44:37;13.70;;;7.20;;
4742;SDS011;24293;48.154;7.748;2023-12-14T06:47:03;14.70;;;8.90;;
4742;SDS011;24293;48.154;7.748;2023-12-14T06:49:30;13.07;;;6.63;;
4742;SDS011;24293;48.154;7.748;2023-12-14T06:51:57;12.97;;;5.97;;
4742;SDS011;24293;48.154;7.748;2023-12-14T06:54:24;11.43;;;6.13;;
4742;SDS011;24293;48.154;7.748;2023-12-14T06:56:50;11.43;;;6.57;;
4742;SDS011;24293;48.154;7.748;2023-12-14T06:59:17;14.40;;;7.20;;
4742;SDS011;24293;48.154;7.748;2023-12-14T07:01:43;9.60;;;4.10;;
4742;SDS011;24293;48.154;7.748;2023-12-14T07:04:10;11.03;;;5.57;;
4742;SDS011;24293;48.154;7.748;2023-12-14T07:06:36;9.23;;;4.97;;
4742;SDS011;24293;48.154;7.748;2023-12-14T07:09:04;9.70;;;4.40;;
4742;SDS011;24293;48.154;7.748;2023-12-14T07:11:31;5.57;;;2.83;;
4742;SDS011;24293;48.154;7.748;2023-12-14T07:13:57;6.53;;;4.10;;
4742;SDS011;24293;48.154;7.748;2023-12-14T07:16:23;6.27;;;3.70;;
4742;SDS011;24293;48.154;7.748;2023-12-14T07:18:50;7.60;;;3.40;;
4742;SDS011;24293;48.154;7.748;2023-12-14T07:21:16;9.40;;;4.30;;
4742;SDS011;24293;48.154;7.748;2023-12-14T07:23:43;7.33;;;3.67;;
4742;SDS011;24293;48.154;7.748;2023-12-14T07:26:11;8.30;;;4.00;;
4742;SDS011;24293;48.154;7.748;2023-12-14T07:28:37;8.43;;;4.30;;
4742;SDS011;24293;48.154;7.748;2023-12-14T07:31:03;9.10;;;4.40;;
4742;SDS011;24293;48.154;7.748;2023-12-14T07:33:30;5.83;;;3.30;;
4742;SDS011;24293;48.154;7.748;2023-12-14T07:35:56;5.53;;;3.40;;
4742;SDS011;24293;48.154;7.748;2023-12-14T07:38:23;9.87;;;4.53;;
4742;SDS011;24293;48.154;7.748;2023-12-14T07:40:50;9.03;;;4.23;;
4742;SDS011;24293;48.154;7.748;2023-12-14T07:43:18;8.23;;;5.00;;
4742;SDS011;24293;48.154;7.748;2023-12-14T07:45:45;6.83;;;3.43;;
4742;SDS011;24293;48.154;7.748;2023-12-14T07:48:11;5.33;;;3.30;;
4742;SDS011;24293;48.154;7.748;2023-12-14T07:50:38;5.20;;;2.77;;
4742;SDS011;24293;48.154;7.748;2023-12-14T07:53:04;7.93;;;3.20;;
4742;SDS011;24293;48.154;7.748;2023-12-14T07:55:30;5.43;;;2.80;;
4742;SDS011;24293;48.154;7.748;2023-12-14T07:57:56;6.63;;;2.70;;
4742;SDS011;24293;48.154;7.748;2023-12-14T08:00:24;6.70;;;2.93;;
4742;SDS011;24293;48.154;7.748;2023-12-14T08:02:51;7.20;;;3.23;;
4742;SDS011;24293;48.154;7.748;2023-12-14T08:05:18;5.80;;;3.47;;
4742;SDS011;24293;48.154;7.748;2023-12-14T08:07:44;7.50;;;3.30;;
4742;SDS011;24293;48.154;7.748;2023-12-14T08:10:11;8.50;;;4.40;;
4742;SDS011;24293;48.154;7.748;2023-12-14T08:12:37;15.60;;;11.33;;
4742;SDS011;24293;48.154;7.748;2023-12-14T08:15:04;10.20;;;5.37;;
4742;SDS011;24293;48.154;7.748;2023-12-14T08:17:32;11.53;;;5.97;;
4742;SDS011;24293;48.154;7.748;2023-12-14T08:19:58;13.43;;;9.17;;
4742;SDS011;24293;48.154;7.748;2023-12-14T08:22:25;9.80;;;4.93;;
4742;SDS011;24293;48.154;7.748;2023-12-14T08:24:51;9.03;;;5.40;;
4742;SDS011;24293;48.154;7.748;2023-12-14T08:27:18;10.17;;;4.60;;
4742;SDS011;24293;48.154;7.748;2023-12-14T08:29:44;9.00;;;5.73;;
4742;SDS011;24293;48.154;7.748;2023-12-14T08:32:11;12.00;;;6.27;;
4742;SDS011;24293;48.154;7.748;2023-12-14T08:34:39;8.67;;;5.23;;
4742;SDS011;24293;48.154;7.748;2023-12-14T08:37:06;7.50;;;4.03;;
4742;SDS011;24293;48.154;7.748;2023-12-14T08:39:32;6.80;;;4.10;;
4742;SDS011;24293;48.154;7.748;2023-12-14T08:41:59;11.40;;;6.60;;
4742;SDS011;24293;48.154;7.748;2023-12-14T08:44:25;8.57;;;4.60;;
4742;SDS011;24293;48.154;7.748;2023-12-14T08:46:52;10.37;;;5.57;;
4742;SDS011;24293;48.154;7.748;2023-12-14T08:49:18;11.20;;;6.23;;
4742;SDS011;24293;48.154;7.748;2023-12-14T08:51:46;9.50;;;5.20;;
4742;SDS011;24293;48.154;7.748;2023-12-14T08:54:12;9.70;;;6.07;;
4742;SDS011;24293;48.154;7.748;2023-12-14T08:56:39;11.57;;;5.83;;
4742;SDS011;24293;48.154;7.748;2023-12-14T08:59:06;10.90;;;6.20;;
4742;SDS011;24293;48.154;7.748;2023-12-14T09:01:32;14.43;;;6.33;;
4742;SDS011;24293;48.154;7.748;2023-12-14T09:03:59;13.90;;;6.67;;
4742;SDS011;24293;48.154;7.748;2023-12-14T09:06:25;12.07;;;6.23;;
4742;SDS011;24293;48.154;7.748;2023-12-14T09:08:53;13.80;;;8.87;;
4742;SDS011;24293;48.154;7.748;2023-12-14T09:11:20;15.63;;;7.53;;
4742;SDS011;24293;48.154;7.748;2023-12-14T09:13:46;13.57;;;7.70;;
4742;SDS011;24293;48.154;7.748;2023-12-14T09:16:13;13.23;;;7.37;;
4742;SDS011;24293;48.154;7.748;2023-12-14T09:18:39;13.10;;;6.97;;
4742;SDS011;24293;48.154;7.748;2023-12-14T09:21:06;13.23;;;7.03;;
4742;SDS011;24293;48.154;7.748;2023-12-14T09:23:32;13.17;;;7.10;;
4742;SDS011;24293;48.154;7.748;2023-12-14T09:26:00;10.63;;;7.13;;
4742;SDS011;24293;48.154;7.748;2023-12-14T09:28:27;14.07;;;6.73;;
4742;SDS011;24293;48.154;7.748;2023-12-14T09:30:53;11.00;;;5.93;;
4742;SDS011;24293;48.154;7.748;2023-12-14T09:33:20;10.70;;;6.00;;
4742;SDS011;24293;48.154;7.748;2023-12-14T09:35:46;12.57;;;6.77;;
4742;SDS011;24293;48.154;7.748;2023-12-14T09:38:13;10.30;;;6.00;;
4742;SDS011;24293;48.154;7.748;2023-12-14T09:40:42;11.60;;;7.30;;
4742;SDS011;24293;48.154;7.748;2023-12-14T09:43:10;11.30;;;6.53;;
4742;SDS011;24293;48.154;7.748;2023-12-14T09:45:37;14.23;;;9.00;;
4742;SDS011;24293;48.154;7.748;2023-12-14T09:48:06;16.23;;;7.67;;
4742;SDS011;24293;48.154;7.748;2023-12-14T09:50:32;11.33;;;7.20;;
4742;SDS011;24293;48.154;7.748;2023-12-14T09:53:00;14.07;;;9.10;;
4742;SDS011;24293;48.154;7.748;2023-12-14T09:55:26;10.80;;;6.13;;
4742;SDS011;24293;48.154;7.748;2023-12-14T09:57:53;15.30;;;7.20;;
4742;SDS011;24293;48.154;7.748;2023-12-14T10:00:33;12.73;;;7.30;;
4742;SDS011;24293;48.154;7.748;2023-12-14T10:05:41;9.30;;;6.40;;
4742;SDS011;24293;48.154;7.748;2023-12-14T10:08:08;10.00;;;6.80;;
4742;SDS011;24293;48.154;7.748;2023-12-14T10:10:34;12.50;;;5.63;;
4742;SDS011;24293;48.154;7.748;2023-12-14T10:13:01;10.77;;;7.10;;
4742;SDS011;24293;48.154;7.748;2023-12-14T10:15:27;10.60;;;6.90;;
4742;SDS011;24293;48.154;7.748;2023-12-14T10:17:55;11.77;;;6.57;;
4742;SDS011;24293;48.154;7.748;2023-12-14T10:20:23;10.40;;;6.10;;
4742;SDS011;24293;48.154;7.748;2023-12-14T10:22:51;9.80;;;6.33;;
4742;SDS011;24293;48.154;7.748;2023-12-14T10:25:20;10.83;;;5.53;;
4742;SDS011;24293;48.154;7.748;2023-12-14T10:27:47;9.73;;;6.20;;
4742;SDS011;24293;48.154;7.748;2023-12-14T10:30:14;13.20;;;7.03;;
4742;SDS011;24293;48.154;7.748;2023-12-14T10:32:43;12.13;;;6.97;;
4742;SDS011;24293;48.154;7.748;2023-12-14T10:35:12;11.53;;;7.83;;
4742;SDS011;24293;48.154;7.748;2023-12-14T10:37:38;14.17;;;9.30;;
4742;SDS011;24293;48.154;7.748;2023-12-14T10:40:05;15.00;;;9.40;;
4742;SDS011;24293;48.154;7.748;2023-12-14T10:42:33;24.33;;;12.37;;
4742;SDS011;24293;48.154;7.748;2023-12-14T10:45:02;22.93;;;12.30;;
4742;SDS011;24293;48.154;7.748;2023-12-14T10:47:29;27.13;;;13.67;;
4742;SDS011;24293;48.154;7.748;2023-12-14T10:49:55;49.83;;;23.20;;
4742;SDS011;24293;48.154;7.748;2023-12-14T10:52:24;11.57;;;6.20;;
4742;SDS011;24293;48.154;7.748;2023-12-14T10:54:52;12.60;;;5.70;;
4742;SDS011;24293;48.154;7.748;2023-12-14T10:57:21;10.90;;;5.50;;
4742;SDS011;24293;48.154;7.748;2023-12-14T10:59:48;8.80;;;5.03;;
4742;SDS011;24293;48.154;7.748;2023-12-14T11:02:15;9.07;;;4.40;;
4742;SDS011;24293;48.154;7.748;2023-12-14T11:04:53;11.10;;;5.40;;
4742;SDS011;24293;48.154;7.748;2023-12-14T11:10:13;7.37;;;3.80;;
4742;SDS011;24293;48.154;7.748;2023-12-14T11:13:00;11.53;;;4.13;;
4742;SDS011;24293;48.154;7.748;2023-12-14T11:15:27;13.70;;;4.40;;
4742;SDS011;24293;48.154;7.748;2023-12-14T11:20:47;9.23;;;3.80;;
4742;SDS011;24293;48.154;7.748;2023-12-14T11:23:14;7.50;;;4.20;;
4742;SDS011;24293;48.154;7.748;2023-12-14T11:25:43;6.93;;;3.47;;
4742;SDS011;24293;48.154;7.748;2023-12-14T11:28:10;7.40;;;3.03;;
4742;SDS011;24293;48.154;7.748;2023-12-14T11:30:38;5.87;;;3.23;;
4742;SDS011;24293;48.154;7.748;2023-12-14T11:33:04;7.03;;;3.70;;
4742;SDS011;24293;48.154;7.748;2023-12-14T11:35:31;10.97;;;3.37;;
4742;SDS011;24293;48.154;7.748;2023-12-14T11:37:58;10.77;;;3.30;;
4742;SDS011;24293;48.154;7.748;2023-12-14T11:40:27;5.47;;;2.50;;
4742;SDS011;24293;48.154;7.748;2023-12-14T11:42:58;6.30;;;3.03;;
4742;SDS011;24293;48.154;7.748;2023-12-14T11:45:25;6.70;;;3.53;;
4742;SDS011;24293;48.154;7.748;2023-12-14T11:47:52;6.83;;;2.97;;
4742;SDS011;24293;48.154;7.748;2023-12-14T11:50:18;10.70;;;2.93;;
4742;SDS011;24293;48.154;7.748;2023-12-14T11:52:45;5.00;;;2.93;;
4742;SDS011;24293;48.154;7.748;2023-12-14T11:55:12;9.10;;;3.10;;
4742;SDS011;24293;48.154;7.748;2023-12-14T11:57:38;5.10;;;2.10;;
4742;SDS011;24293;48.154;7.748;2023-12-14T12:00:07;4.80;;;2.37;;
4742;SDS011;24293;48.154;7.748;2023-12-14T12:02:34;4.90;;;2.23;;
4742;SDS011;24293;48.154;7.748;2023-12-14T12:05:01;6.20;;;2.97;;
4742;SDS011;24293;48.154;7.748;2023-12-14T12:07:27;5.30;;;3.00;;
4742;SDS011;24293;48.154;7.748;2023-12-14T12:09:54;5.03;;;2.37;;
4742;SDS011;24293;48.154;7.748;2023-12-14T12:12:20;4.67;;;2.70;;
4742;SDS011;24293;48.154;7.748;2023-12-14T12:14:47;9.37;;;3.83;;
4742;SDS011;24293;48.154;7.748;2023-12-14T12:17:16;17.43;;;4.70;;
4742;SDS011;24293;48.154;7.748;2023-12-14T12:19:44;7.83;;;3.23;;
4742;SDS011;24293;48.154;7.748;2023-12-14T12:22:10;4.87;;;2.50;;
4742;SDS011;24293;48.154;7.748;2023-12-14T12:24:37;3.90;;;1.70;;
4742;SDS011;24293;48.154;7.748;2023-12-14T12:27:04;4.83;;;2.40;;
4742;SDS011;24293;48.154;7.748;2023-12-14T12:29:30;4.93;;;1.93;;
4742;SDS011;24293;48.154;7.748;2023-12-14T12:31:56;4.30;;;1.90;;
4742;SDS011;24293;48.154;7.748;2023-12-14T12:34:24;4.00;;;2.07;;
4742;SDS011;24293;48.154;7.748;2023-12-14T12:36:51;5.67;;;2.90;;
4742;SDS011;24293;48.154;7.748;2023-12-14T12:39:17;6.07;;;4.40;;
4742;SDS011;24293;48.154;7.748;2023-12-14T12:41:44;14.33;;;2.90;;
4742;SDS011;24293;48.154;7.748;2023-12-14T12:44:10;6.50;;;2.47;;
4742;SDS011;24293;48.154;7.748;2023-12-14T12:46:37;4.60;;;2.70;;
4742;SDS011;24293;48.154;7.748;2023-12-14T12:49:04;4.60;;;2.70;;
4742;SDS011;24293;48.154;7.748;2023-12-14T12:51:32;5.90;;;3.20;;
4742;SDS011;24293;48.154;7.748;2023-12-14T12:54:00;4.83;;;1.93;;
4742;SDS011;24293;48.154;7.748;2023-12-14T12:56:26;8.23;;;4.17;;
4742;SDS011;24293;48.154;7.748;2023-12-14T12:58:53;18.03;;;6.10;;
4742;SDS011;24293;48.154;7.748;2023-12-14T13:01:20;14.07;;;4.93;;
4742;SDS011;24293;48.154;7.748;2023-12-14T13:03:47;9.43;;;4.63;;
4742;SDS011;24293;48.154;7.748;2023-12-14T13:06:14;8.70;;;4.27;;
4742;SDS011;24293;48.154;7.748;2023-12-14T13:08:41;14.53;;;8.10;;
4742;SDS011;24293;48.154;7.748;2023-12-14T13:11:08;9.83;;;6.50;;
4742;SDS011;24293;48.154;7.748;2023-12-14T13:13:34;8.43;;;4.00;;
4742;SDS011;24293;48.154;7.748;2023-12-14T13:16:01;5.07;;;3.10;;
4742;SDS011;24293;48.154;7.748;2023-12-14T13:18:28;6.10;;;3.17;;
4742;SDS011;24293;48.154;7.748;2023-12-14T13:20:54;4.10;;;2.23;;
4742;SDS011;24293;48.154;7.748;2023-12-14T13:23:20;4.67;;;2.40;;
4742;SDS011;24293;48.154;7.748;2023-12-14T13:25:49;6.60;;;2.60;;
4742;SDS011;24293;48.154;7.748;2023-12-14T13:28:15;6.00;;;2.80;;
4742;SDS011;24293;48.154;7.748;2023-12-14T13:30:42;6.90;;;2.80;;
4742;SDS011;24293;48.154;7.748;2023-12-14T13:33:08;5.30;;;2.60;;
4742;SDS011;24293;48.154;7.748;2023-12-14T13:35:37;5.10;;;2.53;;
4742;SDS011;24293;48.154;7.748;2023-12-14T13:38:03;5.00;;;2.43;;
4742;SDS011;24293;48.154;7.748;2023-12-14T13:40:30;9.03;;;3.63;;
4742;SDS011;24293;48.154;7.748;2023-12-14T13:42:58;6.00;;;3.90;;
4742;SDS011;24293;48.154;7.748;2023-12-14T13:45:28;9.90;;;3.50;;
4742;SDS011;24293;48.154;7.748;2023-12-14T13:47:55;5.10;;;3.10;;
4742;SDS011;24293;48.154;7.748;2023-12-14T13:50:23;6.50;;;3.27;;
4742;SDS011;24293;48.154;7.748;2023-12-14T13:52:51;5.57;;;3.23;;
4742;SDS011;24293;48.154;7.748;2023-12-14T13:55:18;6.63;;;3.50;;
4742;SDS011;24293;48.154;7.748;2023-12-14T13:57:44;5.27;;;3.10;;
4742;SDS011;24293;48.154;7.748;2023-12-14T14:00:14;8.53;;;3.80;;
4742;SDS011;24293;48.154;7.748;2023-12-14T14:02:42;5.97;;;3.50;;
4742;SDS011;24293;48.154;7.748;2023-12-14T14:05:08;7.13;;;3.40;;
4742;SDS011;24293;48.154;7.748;2023-12-14T14:07:35;5.50;;;3.53;;
4742;SDS011;24293;48.154;7.748;2023-12-14T14:10:02;6.53;;;3.70;;
4742;SDS011;24293;48.154;7.748;2023-12-14T14:12:28;5.63;;;3.20;;
4742;SDS011;24293;48.154;7.748;2023-12-14T14:14:55;7.03;;;3.80;;
4742;SDS011;24293;48.154;7.748;2023-12-14T14:17:23;6.17;;;3.60;;
4742;SDS011;24293;48.154;7.748;2023-12-14T14:19:49;7.60;;;3.50;;
4742;SDS011;24293;48.154;7.748;2023-12-14T14:22:16;7.60;;;3.40;;
4742;SDS011;24293;48.154;7.748;2023-12-14T14:24:42;7.30;;;3.40;;
4742;SDS011;24293;48.154;7.748;2023-12-14T14:27:09;6.10;;;3.30;;
4742;SDS011;24293;48.154;7.748;2023-12-14T14:29:35;6.90;;;3.47;;
4742;SDS011;24293;48.154;7.748;2023-12-14T14:32:02;8.07;;;2.97;;
4742;SDS011;24293;48.154;7.748;2023-12-14T14:34:29;10.90;;;3.90;;
4742;SDS011;24293;48.154;7.748;2023-12-14T14:36:56;8.43;;;4.23;;
4742;SDS011;24293;48.154;7.748;2023-12-14T14:39:22;6.87;;;4.00;;
4742;SDS011;24293;48.154;7.748;2023-12-14T14:41:49;6.67;;;4.10;;
4742;SDS011;24293;48.154;7.748;2023-12-14T14:44:15;7.23;;;4.20;;
4742;SDS011;24293;48.154;7.748;2023-12-14T14:46:42;8.37;;;3.57;;
4742;SDS011;24293;48.154;7.748;2023-12-14T14:49:09;6.37;;;3.17;;
4742;SDS011;24293;48.154;7.748;2023-12-14T14:51:37;9.03;;;4.53;;
4742;SDS011;24293;48.154;7.748;2023-12-14T14:54:03;8.37;;;4.30;;
4742;SDS011;24293;48.154;7.748;2023-12-14T14:56:30;7.43;;;3.60;;
4742;SDS011;24293;48.154;7.748;2023-12-14T14:58:56;8.30;;;4.00;;
4742;SDS011;24293;48.154;7.748;2023-12-14T15:01:23;8.77;;;5.33;;
4742;SDS011;24293;48.154;7.748;2023-12-14T15:03:49;56.70;;;26.03;;